sensor_id;sensor_type;location;lat;lon;timestamp;P1;durP1;ratioP1;P2;durP2;ratioP2
44694;SDS011;32845;59.422;17.930;2023-09-19T00:04:21;11.60;;;3.00;;
44694;SDS011;32845;59.422;17.930;2023-09-19T00:08:58;9.93;;;3.90;;
44694;SDS011;32845;59.422;17.930;2023-09-19T00:13:30;13.00;;;3.83;;
44694;SDS011;32845;59.422;17.930;2023-09-19T00:18:00;13.13;;;3.53;;
44694;SDS011;32845;59.422;17.930;2023-09-19T00:22:31;8.73;;;3.85;;
44694;SDS011;32845;59.422;17.930;2023-09-19T00:27:02;7.15;;;3.22;;
44694;SDS011;32845;59.422;17.930;2023-09-19T00:31:33;12.25;;;4.07;;
44694;SDS011;32845;59.422;17.930;2023-09-19T00:36:03;18.65;;;4.47;;
44694;SDS011;32845;59.422;17.930;2023-09-19T00:40:35;12.07;;;4.15;;
44694;SDS011;32845;59.422;17.930;2023-09-19T00:45:10;11.10;;;4.18;;
44694;SDS011;32845;59.422;17.930;2023-09-19T00:49:42;9.77;;;4.25;;
44694;SDS011;32845;59.422;17.930;2023-09-19T00:54:20;10.35;;;4.82;;
44694;SDS011;32845;59.422;17.930;2023-09-19T00:58:51;9.32;;;4.53;;
44694;SDS011;32845;59.422;17.930;2023-09-19T01:03:22;15.98;;;4.90;;
44694;SDS011;32845;59.422;17.930;2023-09-19T01:07:53;18.50;;;5.22;;
44694;SDS011;32845;59.422;17.930;2023-09-19T01:12:24;17.45;;;5.60;;
44694;SDS011;32845;59.422;17.930;2023-09-19T01:17:05;13.45;;;5.75;;
44694;SDS011;32845;59.422;17.930;2023-09-19T01:27:05;14.18;;;5.68;;
44694;SDS011;32845;59.422;17.930;2023-09-19T01:31:57;17.17;;;6.35;;
44694;SDS011;32845;59.422;17.930;2023-09-19T01:36:36;15.65;;;5.93;;
44694;SDS011;32845;59.422;17.930;2023-09-19T01:41:10;15.40;;;6.63;;
44694;SDS011;32845;59.422;17.930;2023-09-19T01:55:11;11.40;;;6.20;;
44694;SDS011;32845;59.422;17.930;2023-09-19T01:59:54;13.65;;;6.70;;
44694;SDS011;32845;59.422;17.930;2023-09-19T02:04:32;24.17;;;8.63;;
44694;SDS011;32845;59.422;17.930;2023-09-19T02:09:04;14.98;;;7.13;;
44694;SDS011;32845;59.422;17.930;2023-09-19T02:13:36;18.98;;;6.88;;
44694;SDS011;32845;59.422;17.930;2023-09-19T02:18:07;22.85;;;7.28;;
44694;SDS011;32845;59.422;17.930;2023-09-19T02:22:38;21.73;;;7.15;;
44694;SDS011;32845;59.422;17.930;2023-09-19T02:27:09;20.95;;;7.93;;
44694;SDS011;32845;59.422;17.930;2023-09-19T02:31:42;20.85;;;7.97;;
44694;SDS011;32845;59.422;17.930;2023-09-19T02:36:13;27.23;;;8.55;;
44694;SDS011;32845;59.422;17.930;2023-09-19T02:40:47;20.23;;;8.10;;
44694;SDS011;32845;59.422;17.930;2023-09-19T02:45:17;20.35;;;7.95;;
44694;SDS011;32845;59.422;17.930;2023-09-19T02:49:48;16.90;;;8.75;;
44694;SDS011;32845;59.422;17.930;2023-09-19T02:54:19;14.70;;;8.65;;
44694;SDS011;32845;59.422;17.930;2023-09-19T02:58:50;13.98;;;8.77;;
44694;SDS011;32845;59.422;17.930;2023-09-19T03:03:21;23.30;;;8.90;;
44694;SDS011;32845;59.422;17.930;2023-09-19T03:07:51;17.73;;;9.30;;
44694;SDS011;32845;59.422;17.930;2023-09-19T03:12:22;17.67;;;9.77;;
44694;SDS011;32845;59.422;17.930;2023-09-19T03:16:53;22.05;;;10.07;;
44694;SDS011;32845;59.422;17.930;2023-09-19T03:21:23;21.30;;;10.27;;
44694;SDS011;32845;59.422;17.930;2023-09-19T03:25:55;20.20;;;10.02;;
44694;SDS011;32845;59.422;17.930;2023-09-19T03:30:27;23.20;;;9.70;;
44694;SDS011;32845;59.422;17.930;2023-09-19T03:34:57;18.92;;;9.73;;
44694;SDS011;32845;59.422;17.930;2023-09-19T03:39:28;28.73;;;9.93;;
44694;SDS011;32845;59.422;17.930;2023-09-19T03:43:59;19.20;;;10.27;;
44694;SDS011;32845;59.422;17.930;2023-09-19T03:48:30;26.85;;;11.07;;
44694;SDS011;32845;59.422;17.930;2023-09-19T03:53:01;28.88;;;10.15;;
44694;SDS011;32845;59.422;17.930;2023-09-19T03:57:32;24.75;;;12.07;;
44694;SDS011;32845;59.422;17.930;2023-09-19T04:02:02;18.95;;;10.80;;
44694;SDS011;32845;59.422;17.930;2023-09-19T04:06:34;29.90;;;11.82;;
44694;SDS011;32845;59.422;17.930;2023-09-19T04:11:05;26.38;;;11.02;;
44694;SDS011;32845;59.422;17.930;2023-09-19T04:15:36;22.85;;;11.05;;
44694;SDS011;32845;59.422;17.930;2023-09-19T04:20:07;29.58;;;11.02;;
44694;SDS011;32845;59.422;17.930;2023-09-19T04:24:39;25.30;;;10.77;;
44694;SDS011;32845;59.422;17.930;2023-09-19T04:29:09;25.02;;;12.27;;
44694;SDS011;32845;59.422;17.930;2023-09-19T04:33:41;31.60;;;11.60;;
44694;SDS011;32845;59.422;17.930;2023-09-19T04:38:13;27.35;;;11.63;;
44694;SDS011;32845;59.422;17.930;2023-09-19T04:42:45;25.83;;;11.80;;
44694;SDS011;32845;59.422;17.930;2023-09-19T04:47:16;25.85;;;11.75;;
44694;SDS011;32845;59.422;17.930;2023-09-19T04:51:46;31.67;;;12.43;;
44694;SDS011;32845;59.422;17.930;2023-09-19T04:56:17;27.65;;;11.60;;
44694;SDS011;32845;59.422;17.930;2023-09-19T05:00:49;24.67;;;12.00;;
44694;SDS011;32845;59.422;17.930;2023-09-19T05:05:21;20.85;;;11.27;;
44694;SDS011;32845;59.422;17.930;2023-09-19T05:09:52;28.27;;;13.38;;
44694;SDS011;32845;59.422;17.930;2023-09-19T05:14:23;27.13;;;13.52;;
44694;SDS011;32845;59.422;17.930;2023-09-19T05:18:54;24.23;;;12.70;;
44694;SDS011;32845;59.422;17.930;2023-09-19T05:23:25;25.20;;;11.82;;
44694;SDS011;32845;59.422;17.930;2023-09-19T05:27:57;21.08;;;12.35;;
44694;SDS011;32845;59.422;17.930;2023-09-19T05:32:29;26.17;;;12.10;;
44694;SDS011;32845;59.422;17.930;2023-09-19T05:36:59;28.58;;;11.45;;
44694;SDS011;32845;59.422;17.930;2023-09-19T05:41:30;26.63;;;12.13;;
44694;SDS011;32845;59.422;17.930;2023-09-19T05:46:00;28.08;;;12.65;;
44694;SDS011;32845;59.422;17.930;2023-09-19T05:50:31;35.30;;;11.80;;
44694;SDS011;32845;59.422;17.930;2023-09-19T05:55:02;26.20;;;13.07;;
44694;SDS011;32845;59.422;17.930;2023-09-19T05:59:37;27.90;;;13.40;;
44694;SDS011;32845;59.422;17.930;2023-09-19T06:04:09;38.38;;;14.07;;
44694;SDS011;32845;59.422;17.930;2023-09-19T06:08:40;24.70;;;13.07;;
44694;SDS011;32845;59.422;17.930;2023-09-19T06:13:11;22.17;;;12.70;;
44694;SDS011;32845;59.422;17.930;2023-09-19T06:17:51;31.25;;;13.55;;
44694;SDS011;32845;59.422;17.930;2023-09-19T06:22:25;27.05;;;13.00;;
44694;SDS011;32845;59.422;17.930;2023-09-19T06:26:56;24.05;;;13.38;;
44694;SDS011;32845;59.422;17.930;2023-09-19T06:31:27;28.13;;;13.00;;
44694;SDS011;32845;59.422;17.930;2023-09-19T06:35:58;33.00;;;14.43;;
44694;SDS011;32845;59.422;17.930;2023-09-19T06:40:30;28.42;;;13.70;;
44694;SDS011;32845;59.422;17.930;2023-09-19T06:45:01;26.48;;;13.30;;
44694;SDS011;32845;59.422;17.930;2023-09-19T06:49:31;33.38;;;13.85;;
44694;SDS011;32845;59.422;17.930;2023-09-19T06:54:02;25.88;;;13.40;;
44694;SDS011;32845;59.422;17.930;2023-09-19T06:58:35;23.33;;;12.48;;
44694;SDS011;32845;59.422;17.930;2023-09-19T07:03:07;28.88;;;12.88;;
44694;SDS011;32845;59.422;17.930;2023-09-19T07:07:41;26.17;;;13.13;;
44694;SDS011;32845;59.422;17.930;2023-09-19T07:12:12;28.38;;;12.57;;
44694;SDS011;32845;59.422;17.930;2023-09-19T07:16:43;22.52;;;11.77;;
44694;SDS011;32845;59.422;17.930;2023-09-19T07:21:15;21.50;;;12.82;;
44694;SDS011;32845;59.422;17.930;2023-09-19T07:25:46;24.60;;;13.00;;
44694;SDS011;32845;59.422;17.930;2023-09-19T07:30:17;25.35;;;12.68;;
44694;SDS011;32845;59.422;17.930;2023-09-19T07:34:47;27.13;;;13.43;;
44694;SDS011;32845;59.422;17.930;2023-09-19T07:39:18;26.63;;;13.90;;
44694;SDS011;32845;59.422;17.930;2023-09-19T07:43:49;20.60;;;11.75;;
44694;SDS011;32845;59.422;17.930;2023-09-19T07:48:19;29.13;;;11.98;;
44694;SDS011;32845;59.422;17.930;2023-09-19T07:52:50;17.80;;;11.55;;
44694;SDS011;32845;59.422;17.930;2023-09-19T07:57:20;15.60;;;10.13;;
44694;SDS011;32845;59.422;17.930;2023-09-19T08:01:51;20.65;;;9.90;;
44694;SDS011;32845;59.422;17.930;2023-09-19T08:06:22;22.25;;;10.00;;
44694;SDS011;32845;59.422;17.930;2023-09-19T08:10:53;15.35;;;9.75;;
44694;SDS011;32845;59.422;17.930;2023-09-19T08:15:26;18.73;;;10.02;;
44694;SDS011;32845;59.422;17.930;2023-09-19T08:19:56;24.33;;;10.07;;
44694;SDS011;32845;59.422;17.930;2023-09-19T08:24:27;18.88;;;9.13;;
44694;SDS011;32845;59.422;17.930;2023-09-19T08:28:59;24.00;;;9.73;;
44694;SDS011;32845;59.422;17.930;2023-09-19T08:33:35;20.58;;;10.10;;
44694;SDS011;32845;59.422;17.930;2023-09-19T08:38:06;23.02;;;10.30;;
44694;SDS011;32845;59.422;17.930;2023-09-19T08:42:49;14.95;;;8.57;;
44694;SDS011;32845;59.422;17.930;2023-09-19T08:47:33;17.75;;;9.60;;
44694;SDS011;32845;59.422;17.930;2023-09-19T08:52:22;24.85;;;9.40;;
44694;SDS011;32845;59.422;17.930;2023-09-19T08:56:57;17.77;;;9.13;;
44694;SDS011;32845;59.422;17.930;2023-09-19T09:01:35;17.33;;;9.77;;
44694;SDS011;32845;59.422;17.930;2023-09-19T09:06:07;25.92;;;8.70;;
44694;SDS011;32845;59.422;17.930;2023-09-19T09:10:40;25.15;;;8.98;;
44694;SDS011;32845;59.422;17.930;2023-09-19T09:15:14;14.50;;;7.72;;
44694;SDS011;32845;59.422;17.930;2023-09-19T09:19:46;14.90;;;7.35;;
44694;SDS011;32845;59.422;17.930;2023-09-19T09:24:35;16.92;;;7.70;;
44694;SDS011;32845;59.422;17.930;2023-09-19T09:29:07;10.32;;;6.68;;
44694;SDS011;32845;59.422;17.930;2023-09-19T09:33:38;21.75;;;7.43;;
44694;SDS011;32845;59.422;17.930;2023-09-19T09:38:09;20.15;;;7.32;;
44694;SDS011;32845;59.422;17.930;2023-09-19T09:42:40;17.17;;;6.80;;
44694;SDS011;32845;59.422;17.930;2023-09-19T09:47:11;25.10;;;6.95;;
44694;SDS011;32845;59.422;17.930;2023-09-19T09:56:40;11.70;;;5.72;;
44694;SDS011;32845;59.422;17.930;2023-09-19T10:01:45;14.55;;;6.53;;
44694;SDS011;32845;59.422;17.930;2023-09-19T10:06:17;9.52;;;5.82;;
44694;SDS011;32845;59.422;17.930;2023-09-19T10:10:58;11.68;;;5.55;;
44694;SDS011;32845;59.422;17.930;2023-09-19T10:15:34;9.98;;;5.32;;
44694;SDS011;32845;59.422;17.930;2023-09-19T10:20:06;10.88;;;5.15;;
44694;SDS011;32845;59.422;17.930;2023-09-19T10:24:50;15.10;;;5.07;;
44694;SDS011;32845;59.422;17.930;2023-09-19T10:29:23;12.75;;;4.78;;
44694;SDS011;32845;59.422;17.930;2023-09-19T10:33:58;14.73;;;5.00;;
44694;SDS011;32845;59.422;17.930;2023-09-19T10:38:34;13.73;;;4.78;;
44694;SDS011;32845;59.422;17.930;2023-09-19T10:43:06;7.93;;;4.30;;
44694;SDS011;32845;59.422;17.930;2023-09-19T10:47:41;9.00;;;3.63;;
44694;SDS011;32845;59.422;17.930;2023-09-19T10:52:14;8.40;;;4.22;;
44694;SDS011;32845;59.422;17.930;2023-09-19T10:56:49;9.57;;;3.83;;
44694;SDS011;32845;59.422;17.930;2023-09-19T11:01:21;8.60;;;3.55;;
44694;SDS011;32845;59.422;17.930;2023-09-19T11:10:48;5.97;;;3.50;;
44694;SDS011;32845;59.422;17.930;2023-09-19T11:20:30;7.68;;;3.03;;
44694;SDS011;32845;59.422;17.930;2023-09-19T11:34:54;12.32;;;3.88;;
44694;SDS011;32845;59.422;17.930;2023-09-19T11:39:38;9.30;;;3.03;;
44694;SDS011;32845;59.422;17.930;2023-09-19T11:48:39;7.63;;;2.00;;
44694;SDS011;32845;59.422;17.930;2023-09-19T11:53:12;2.65;;;1.23;;
44694;SDS011;32845;59.422;17.930;2023-09-19T11:57:42;4.88;;;1.67;;
44694;SDS011;32845;59.422;17.930;2023-09-19T12:02:16;3.60;;;1.15;;
44694;SDS011;32845;59.422;17.930;2023-09-19T12:06:58;3.88;;;0.93;;
44694;SDS011;32845;59.422;17.930;2023-09-19T12:11:30;1.88;;;0.95;;
44694;SDS011;32845;59.422;17.930;2023-09-19T12:16:11;2.75;;;1.10;;
44694;SDS011;32845;59.422;17.930;2023-09-19T12:20:51;5.78;;;1.20;;
44694;SDS011;32845;59.422;17.930;2023-09-19T12:25:22;5.10;;;1.48;;
44694;SDS011;32845;59.422;17.930;2023-09-19T12:29:54;6.65;;;1.15;;
44694;SDS011;32845;59.422;17.930;2023-09-19T12:34:30;9.23;;;1.30;;
44694;SDS011;32845;59.422;17.930;2023-09-19T12:39:04;3.13;;;1.40;;
44694;SDS011;32845;59.422;17.930;2023-09-19T12:43:39;7.63;;;2.17;;
44694;SDS011;32845;59.422;17.930;2023-09-19T12:48:18;15.23;;;1.42;;
44694;SDS011;32845;59.422;17.930;2023-09-19T12:52:59;3.03;;;1.20;;
44694;SDS011;32845;59.422;17.930;2023-09-19T12:57:30;4.38;;;1.20;;
44694;SDS011;32845;59.422;17.930;2023-09-19T13:02:04;7.43;;;1.25;;
44694;SDS011;32845;59.422;17.930;2023-09-19T13:06:37;5.80;;;1.00;;
44694;SDS011;32845;59.422;17.930;2023-09-19T13:11:16;4.13;;;1.10;;
44694;SDS011;32845;59.422;17.930;2023-09-19T13:15:53;8.43;;;1.50;;
44694;SDS011;32845;59.422;17.930;2023-09-19T13:20:27;5.57;;;2.47;;
44694;SDS011;32845;59.422;17.930;2023-09-19T13:24:58;3.65;;;1.38;;
44694;SDS011;32845;59.422;17.930;2023-09-19T13:29:29;5.15;;;1.75;;
44694;SDS011;32845;59.422;17.930;2023-09-19T13:34:00;5.10;;;1.52;;
44694;SDS011;32845;59.422;17.930;2023-09-19T13:38:30;4.25;;;1.58;;
44694;SDS011;32845;59.422;17.930;2023-09-19T13:43:01;10.05;;;1.60;;
44694;SDS011;32845;59.422;17.930;2023-09-19T13:47:32;13.10;;;1.80;;
44694;SDS011;32845;59.422;17.930;2023-09-19T13:52:03;3.78;;;1.23;;
44694;SDS011;32845;59.422;17.930;2023-09-19T13:56:35;8.20;;;1.63;;
44694;SDS011;32845;59.422;17.930;2023-09-19T14:01:07;5.25;;;1.30;;
44694;SDS011;32845;59.422;17.930;2023-09-19T14:05:42;3.30;;;1.30;;
44694;SDS011;32845;59.422;17.930;2023-09-19T14:10:13;4.40;;;1.95;;
44694;SDS011;32845;59.422;17.930;2023-09-19T14:14:44;9.40;;;1.70;;
44694;SDS011;32845;59.422;17.930;2023-09-19T14:19:15;5.38;;;1.15;;
44694;SDS011;32845;59.422;17.930;2023-09-19T14:23:46;5.85;;;1.10;;
44694;SDS011;32845;59.422;17.930;2023-09-19T14:28:16;6.28;;;1.42;;
44694;SDS011;32845;59.422;17.930;2023-09-19T14:32:48;3.30;;;1.30;;
44694;SDS011;32845;59.422;17.930;2023-09-19T14:37:18;6.53;;;1.08;;
44694;SDS011;32845;59.422;17.930;2023-09-19T14:41:51;3.97;;;1.00;;
44694;SDS011;32845;59.422;17.930;2023-09-19T14:46:21;3.70;;;1.05;;
44694;SDS011;32845;59.422;17.930;2023-09-19T14:50:54;4.13;;;1.13;;
44694;SDS011;32845;59.422;17.930;2023-09-19T14:55:25;5.90;;;1.20;;
44694;SDS011;32845;59.422;17.930;2023-09-19T14:59:58;10.20;;;1.42;;
44694;SDS011;32845;59.422;17.930;2023-09-19T15:04:29;3.63;;;1.48;;
44694;SDS011;32845;59.422;17.930;2023-09-19T15:09:00;3.63;;;1.10;;
44694;SDS011;32845;59.422;17.930;2023-09-19T15:13:31;9.85;;;1.27;;
44694;SDS011;32845;59.422;17.930;2023-09-19T15:18:02;4.80;;;0.80;;
44694;SDS011;32845;59.422;17.930;2023-09-19T15:22:33;4.53;;;1.10;;
44694;SDS011;32845;59.422;17.930;2023-09-19T15:27:07;1.23;;;0.50;;
44694;SDS011;32845;59.422;17.930;2023-09-19T15:31:38;2.13;;;0.60;;
44694;SDS011;32845;59.422;17.930;2023-09-19T15:36:09;1.00;;;0.50;;
44694;SDS011;32845;59.422;17.930;2023-09-19T15:40:47;1.98;;;0.50;;
44694;SDS011;32845;59.422;17.930;2023-09-19T15:45:18;4.03;;;0.57;;
44694;SDS011;32845;59.422;17.930;2023-09-19T15:49:49;1.73;;;0.55;;
44694;SDS011;32845;59.422;17.930;2023-09-19T15:54:19;2.45;;;0.80;;
44694;SDS011;32845;59.422;17.930;2023-09-19T15:58:51;4.70;;;0.52;;
44694;SDS011;32845;59.422;17.930;2023-09-19T16:03:23;2.47;;;0.65;;
44694;SDS011;32845;59.422;17.930;2023-09-19T16:07:55;3.08;;;0.80;;
44694;SDS011;32845;59.422;17.930;2023-09-19T16:12:26;2.33;;;0.73;;
44694;SDS011;32845;59.422;17.930;2023-09-19T16:16:57;1.05;;;0.50;;
44694;SDS011;32845;59.422;17.930;2023-09-19T16:21:28;2.42;;;0.50;;
44694;SDS011;32845;59.422;17.930;2023-09-19T16:26:02;3.20;;;0.70;;
44694;SDS011;32845;59.422;17.930;2023-09-19T16:30:39;1.50;;;0.50;;
44694;SDS011;32845;59.422;17.930;2023-09-19T16:35:10;3.45;;;0.70;;
44694;SDS011;32845;59.422;17.930;2023-09-19T16:39:41;1.95;;;0.47;;
44694;SDS011;32845;59.422;17.930;2023-09-19T16:44:12;4.50;;;0.70;;
44694;SDS011;32845;59.422;17.930;2023-09-19T16:48:43;1.25;;;0.47;;
44694;SDS011;32845;59.422;17.930;2023-09-19T16:53:16;5.47;;;0.70;;
44694;SDS011;32845;59.422;17.930;2023-09-19T16:57:48;3.70;;;0.77;;
44694;SDS011;32845;59.422;17.930;2023-09-19T17:02:18;1.83;;;0.70;;
44694;SDS011;32845;59.422;17.930;2023-09-19T17:06:49;6.95;;;1.00;;
44694;SDS011;32845;59.422;17.930;2023-09-19T17:11:22;3.67;;;0.63;;
44694;SDS011;32845;59.422;17.930;2023-09-19T17:16:03;2.95;;;0.80;;
44694;SDS011;32845;59.422;17.930;2023-09-19T17:20:41;1.13;;;0.60;;
44694;SDS011;32845;59.422;17.930;2023-09-19T17:25:12;4.00;;;0.90;;
44694;SDS011;32845;59.422;17.930;2023-09-19T17:29:42;2.85;;;0.70;;
44694;SDS011;32845;59.422;17.930;2023-09-19T17:34:13;3.17;;;0.80;;
44694;SDS011;32845;59.422;17.930;2023-09-19T17:38:46;5.15;;;0.82;;
44694;SDS011;32845;59.422;17.930;2023-09-19T17:43:17;2.90;;;0.80;;
44694;SDS011;32845;59.422;17.930;2023-09-19T17:47:48;2.08;;;0.60;;
44694;SDS011;32845;59.422;17.930;2023-09-19T17:52:18;3.17;;;0.70;;
44694;SDS011;32845;59.422;17.930;2023-09-19T17:56:49;3.38;;;0.50;;
44694;SDS011;32845;59.422;17.930;2023-09-19T18:01:20;2.45;;;0.77;;
44694;SDS011;32845;59.422;17.930;2023-09-19T18:05:52;4.30;;;0.60;;
44694;SDS011;32845;59.422;17.930;2023-09-19T18:10:23;1.45;;;0.57;;
44694;SDS011;32845;59.422;17.930;2023-09-19T18:14:53;9.73;;;0.80;;
44694;SDS011;32845;59.422;17.930;2023-09-19T18:19:24;3.13;;;0.90;;
44694;SDS011;32845;59.422;17.930;2023-09-19T18:23:58;5.63;;;1.17;;
44694;SDS011;32845;59.422;17.930;2023-09-19T18:28:30;5.07;;;0.90;;
44694;SDS011;32845;59.422;17.930;2023-09-19T18:33:01;2.15;;;0.50;;
44694;SDS011;32845;59.422;17.930;2023-09-19T18:37:32;7.22;;;1.33;;
44694;SDS011;32845;59.422;17.930;2023-09-19T18:42:04;4.13;;;0.70;;
44694;SDS011;32845;59.422;17.930;2023-09-19T18:46:34;6.78;;;0.82;;
44694;SDS011;32845;59.422;17.930;2023-09-19T18:51:05;3.85;;;0.50;;
44694;SDS011;32845;59.422;17.930;2023-09-19T18:55:36;3.25;;;0.85;;
44694;SDS011;32845;59.422;17.930;2023-09-19T19:00:07;3.88;;;1.05;;
44694;SDS011;32845;59.422;17.930;2023-09-19T19:04:41;3.22;;;0.65;;
44694;SDS011;32845;59.422;17.930;2023-09-19T19:09:12;6.10;;;1.08;;
44694;SDS011;32845;59.422;17.930;2023-09-19T19:13:43;4.05;;;0.65;;
44694;SDS011;32845;59.422;17.930;2023-09-19T19:18:16;6.47;;;0.70;;
44694;SDS011;32845;59.422;17.930;2023-09-19T19:22:47;1.85;;;0.68;;
44694;SDS011;32845;59.422;17.930;2023-09-19T19:27:17;3.20;;;0.93;;
44694;SDS011;32845;59.422;17.930;2023-09-19T19:31:48;3.45;;;0.70;;
44694;SDS011;32845;59.422;17.930;2023-09-19T19:36:20;3.72;;;1.05;;
44694;SDS011;32845;59.422;17.930;2023-09-19T19:40:59;4.40;;;0.80;;
44694;SDS011;32845;59.422;17.930;2023-09-19T19:45:35;6.78;;;0.93;;
44694;SDS011;32845;59.422;17.930;2023-09-19T19:50:06;3.47;;;1.00;;
44694;SDS011;32845;59.422;17.930;2023-09-19T19:54:37;5.22;;;0.80;;
44694;SDS011;32845;59.422;17.930;2023-09-19T19:59:08;5.97;;;0.73;;
44694;SDS011;32845;59.422;17.930;2023-09-19T20:03:47;4.40;;;1.08;;
44694;SDS011;32845;59.422;17.930;2023-09-19T20:08:18;4.25;;;1.05;;
44694;SDS011;32845;59.422;17.930;2023-09-19T20:12:49;5.60;;;0.73;;
44694;SDS011;32845;59.422;17.930;2023-09-19T20:17:20;6.07;;;1.25;;
44694;SDS011;32845;59.422;17.930;2023-09-19T20:21:54;12.20;;;1.13;;
44694;SDS011;32845;59.422;17.930;2023-09-19T20:26:25;4.72;;;1.02;;
44694;SDS011;32845;59.422;17.930;2023-09-19T20:30:56;7.82;;;1.00;;
44694;SDS011;32845;59.422;17.930;2023-09-19T20:35:27;6.72;;;0.93;;
44694;SDS011;32845;59.422;17.930;2023-09-19T20:39:59;4.63;;;0.93;;
44694;SDS011;32845;59.422;17.930;2023-09-19T20:44:33;2.20;;;0.90;;
44694;SDS011;32845;59.422;17.930;2023-09-19T20:49:04;5.38;;;1.20;;
44694;SDS011;32845;59.422;17.930;2023-09-19T20:53:35;4.82;;;0.75;;
44694;SDS011;32845;59.422;17.930;2023-09-19T20:58:07;6.07;;;1.08;;
44694;SDS011;32845;59.422;17.930;2023-09-19T21:02:37;5.05;;;0.90;;
44694;SDS011;32845;59.422;17.930;2023-09-19T21:07:08;6.63;;;1.33;;
44694;SDS011;32845;59.422;17.930;2023-09-19T21:11:39;4.75;;;0.85;;
44694;SDS011;32845;59.422;17.930;2023-09-19T21:16:10;7.00;;;1.25;;
44694;SDS011;32845;59.422;17.930;2023-09-19T21:20:41;4.85;;;0.77;;
44694;SDS011;32845;59.422;17.930;2023-09-19T21:25:12;8.23;;;1.17;;
44694;SDS011;32845;59.422;17.930;2023-09-19T21:29:42;10.77;;;1.13;;
44694;SDS011;32845;59.422;17.930;2023-09-19T21:34:13;8.25;;;1.23;;
44694;SDS011;32845;59.422;17.930;2023-09-19T21:38:44;9.65;;;1.17;;
44694;SDS011;32845;59.422;17.930;2023-09-19T21:43:19;10.30;;;1.27;;
44694;SDS011;32845;59.422;17.930;2023-09-19T21:47:49;6.68;;;1.20;;
44694;SDS011;32845;59.422;17.930;2023-09-19T21:52:20;9.52;;;1.30;;
44694;SDS011;32845;59.422;17.930;2023-09-19T21:56:51;6.93;;;1.20;;
44694;SDS011;32845;59.422;17.930;2023-09-19T22:01:22;8.70;;;1.67;;
44694;SDS011;32845;59.422;17.930;2023-09-19T22:06:28;9.23;;;1.10;;
44694;SDS011;32845;59.422;17.930;2023-09-19T22:10:52;9.70;;;1.23;;
44694;SDS011;32845;59.422;17.930;2023-09-19T22:15:22;7.55;;;1.08;;
44694;SDS011;32845;59.422;17.930;2023-09-19T22:19:53;2.70;;;1.00;;
44694;SDS011;32845;59.422;17.930;2023-09-19T22:24:24;7.78;;;1.20;;
44694;SDS011;32845;59.422;17.930;2023-09-19T22:28:56;5.90;;;1.48;;
44694;SDS011;32845;59.422;17.930;2023-09-19T22:33:27;7.50;;;1.40;;
44694;SDS011;32845;59.422;17.930;2023-09-19T22:37:58;8.10;;;1.33;;
44694;SDS011;32845;59.422;17.930;2023-09-19T22:42:30;6.45;;;1.70;;
44694;SDS011;32845;59.422;17.930;2023-09-19T22:47:01;10.95;;;1.90;;
44694;SDS011;32845;59.422;17.930;2023-09-19T22:51:32;11.90;;;2.05;;
44694;SDS011;32845;59.422;17.930;2023-09-19T22:56:13;9.95;;;1.77;;
44694;SDS011;32845;59.422;17.930;2023-09-19T23:00:44;14.55;;;2.05;;
44694;SDS011;32845;59.422;17.930;2023-09-19T23:05:16;14.35;;;1.90;;
44694;SDS011;32845;59.422;17.930;2023-09-19T23:09:48;6.82;;;1.67;;
44694;SDS011;32845;59.422;17.930;2023-09-19T23:14:19;13.57;;;2.17;;
44694;SDS011;32845;59.422;17.930;2023-09-19T23:18:50;10.20;;;1.60;;
44694;SDS011;32845;59.422;17.930;2023-09-19T23:23:21;10.27;;;1.33;;
44694;SDS011;32845;59.422;17.930;2023-09-19T23:27:52;5.40;;;1.20;;
44694;SDS011;32845;59.422;17.930;2023-09-19T23:32:29;11.10;;;1.88;;
44694;SDS011;32845;59.422;17.930;2023-09-19T23:37:00;10.27;;;1.73;;
44694;SDS011;32845;59.422;17.930;2023-09-19T23:41:35;13.32;;;1.50;;
44694;SDS011;32845;59.422;17.930;2023-09-19T23:46:08;6.47;;;1.58;;
44694;SDS011;32845;59.422;17.930;2023-09-19T23:50:40;6.78;;;1.10;;
44694;SDS011;32845;59.422;17.930;2023-09-19T23:55:15;5.05;;;1.27;;
